createdAt,value
2018-08-03T00:02:14.374Z,4.28
2018-08-03T00:04:45.725Z,3.62
2018-08-03T00:07:14.332Z,3.90
2018-08-03T00:09:42.848Z,4.10
2018-08-03T00:12:11.683Z,3.37
2018-08-03T00:14:40.242Z,3.87
2018-08-03T00:17:08.843Z,3.95
2018-08-03T00:19:37.998Z,3.65
2018-08-03T00:22:07.120Z,3.55
2018-08-03T00:24:35.978Z,3.55
2018-08-03T00:27:04.990Z,3.30
2018-08-03T00:29:33.584Z,3.52
2018-08-03T00:32:02.883Z,4.30
2018-08-03T00:34:32.442Z,3.62
2018-08-03T00:37:01.077Z,3.98
2018-08-03T00:39:29.940Z,3.40
2018-08-03T00:41:58.845Z,4.10
2018-08-03T00:44:28.424Z,4.10
2018-08-03T00:46:57.604Z,3.45
2018-08-03T00:49:26.188Z,3.47
2018-08-03T00:51:55.486Z,3.65
2018-08-03T00:54:24.060Z,4.08
2018-08-03T00:56:53.370Z,3.72
2018-08-03T00:59:22.270Z,3.50
2018-08-03T01:01:50.837Z,3.90
2018-08-03T01:04:20.336Z,3.58
2018-08-03T01:06:49.228Z,4.03
2018-08-03T01:09:18.520Z,3.42
2018-08-03T01:11:47.118Z,3.08
2018-08-03T01:14:16.188Z,3.35
2018-08-03T01:16:44.656Z,3.60
2018-08-03T01:19:14.520Z,3.90
2018-08-03T01:21:46.408Z,3.50
2018-08-03T01:24:16.056Z,3.80
2018-08-03T01:26:44.599Z,3.83
2018-08-03T01:29:14.758Z,3.80
2018-08-03T01:31:46.060Z,3.80
2018-08-03T01:34:14.920Z,3.80
2018-08-03T01:36:43.588Z,3.70
2018-08-03T01:39:13.060Z,3.77
2018-08-03T01:41:41.687Z,4.22
2018-08-03T01:44:10.899Z,3.25
2018-08-03T01:46:39.788Z,3.50
2018-08-03T01:49:08.939Z,3.75
2018-08-03T01:51:38.025Z,3.62
2018-08-03T01:54:06.656Z,3.70
2018-08-03T01:56:35.519Z,3.50
2018-08-03T01:59:05.393Z,3.58
2018-08-03T02:01:34.851Z,3.35
2018-08-03T02:04:04.693Z,3.80
2018-08-03T02:06:33.815Z,3.70
2018-08-03T02:09:03.712Z,3.72
2018-08-03T02:11:34.930Z,3.65
2018-08-03T02:14:05.387Z,4.00
2018-08-03T02:16:35.976Z,3.50
2018-08-03T02:19:05.532Z,3.75
2018-08-03T02:21:34.908Z,3.77
2018-08-03T02:24:04.278Z,5.55
2018-08-03T02:26:33.292Z,4.55
2018-08-03T02:29:02.404Z,3.83
2018-08-03T02:31:32.334Z,3.98
2018-08-03T02:34:01.606Z,3.75
2018-08-03T02:36:31.699Z,3.80
2018-08-03T02:39:00.839Z,3.62
2018-08-03T02:41:30.722Z,3.30
2018-08-03T02:43:59.616Z,3.58
2018-08-03T02:46:29.541Z,3.30
2018-08-03T02:48:58.330Z,3.27
2018-08-03T02:51:29.646Z,3.75
2018-08-03T02:53:59.466Z,3.35
2018-08-03T02:56:30.709Z,3.00
2018-08-03T02:59:03.855Z,3.55
2018-08-03T03:01:33.252Z,3.15
2018-08-03T03:04:03.338Z,3.53
2018-08-03T03:06:33.410Z,3.25
2018-08-03T03:09:04.307Z,3.62
2018-08-03T03:11:34.006Z,3.60
2018-08-03T03:14:05.874Z,3.15
2018-08-03T03:16:36.309Z,3.58
2018-08-03T03:19:06.090Z,3.35
2018-08-03T03:21:35.902Z,3.15
2018-08-03T03:24:05.612Z,3.70
2018-08-03T03:26:34.946Z,3.10
2018-08-03T03:29:07.586Z,3.02
2018-08-03T03:31:39.797Z,3.40
2018-08-03T03:48:49.026Z,3.20
2018-08-03T03:51:18.755Z,3.35
2018-08-03T03:53:53.622Z,3.10
2018-08-03T03:56:25.414Z,3.10
2018-08-03T03:58:54.714Z,3.40
2018-08-03T04:01:24.812Z,3.42
2018-08-03T04:03:54.474Z,3.35
2018-08-03T04:06:23.672Z,3.12
2018-08-03T04:08:53.184Z,3.08
2018-08-03T04:11:23.052Z,3.05
2018-08-03T04:13:52.063Z,3.40
2018-08-03T04:16:20.636Z,3.52
2018-08-03T04:18:49.520Z,3.20
2018-08-03T04:21:19.230Z,3.15
2018-08-03T04:23:48.210Z,3.30
2018-08-03T04:26:17.064Z,2.90
2018-08-03T04:28:45.577Z,3.00
2018-08-03T04:31:14.404Z,3.10
2018-08-03T04:33:43.083Z,3.27
2018-08-03T04:36:12.944Z,3.20
2018-08-03T04:38:41.446Z,3.40
2018-08-03T04:41:09.930Z,3.15
2018-08-03T04:46:31.394Z,3.37
2018-08-03T04:49:00.968Z,3.80
2018-08-03T04:51:30.196Z,4.03
2018-08-03T04:54:00.520Z,3.70
2018-08-03T04:56:31.436Z,3.70
2018-08-03T04:59:00.502Z,3.17
2018-08-03T05:01:29.410Z,3.40
2018-08-03T05:04:00.168Z,3.33
2018-08-03T05:06:30.132Z,3.05
2018-08-03T05:08:59.158Z,3.40
2018-08-03T05:11:30.116Z,3.20
2018-08-03T05:13:58.800Z,3.40
2018-08-03T05:16:28.318Z,3.25
2018-08-03T05:18:58.736Z,3.30
2018-08-03T05:21:27.847Z,3.22
2018-08-03T05:23:56.844Z,3.25
2018-08-03T05:26:25.780Z,3.10
2018-08-03T05:28:56.430Z,3.20
2018-08-03T05:31:25.000Z,3.37
2018-08-03T05:33:54.590Z,3.45
2018-08-03T05:36:23.272Z,3.67
2018-08-03T05:38:52.294Z,3.37
2018-08-03T05:41:20.983Z,3.37
2018-08-03T05:43:53.326Z,3.70
2018-08-03T05:46:22.958Z,3.62
2018-08-03T05:48:52.850Z,3.47
2018-08-03T05:51:21.574Z,3.52
2018-08-03T05:53:51.609Z,3.60
2018-08-03T05:56:25.414Z,4.03
2018-08-03T05:58:54.218Z,3.42
2018-08-03T06:01:23.420Z,3.75
2018-08-03T06:03:53.452Z,3.70
2018-08-03T06:06:22.050Z,4.22
2018-08-03T06:08:50.872Z,3.70
2018-08-03T06:11:19.654Z,4.30
2018-08-03T06:13:48.062Z,3.60
2018-08-03T06:16:17.126Z,4.20
2018-08-03T06:18:47.091Z,4.25
2018-08-03T06:21:15.480Z,4.50
2018-08-03T06:23:49.116Z,4.30
2018-08-03T06:26:17.918Z,4.17
2018-08-03T06:28:46.402Z,4.72
2018-08-03T06:31:14.903Z,4.15
2018-08-03T06:33:43.754Z,5.35
2018-08-03T06:36:12.438Z,4.92
2018-08-03T06:38:41.007Z,5.05
2018-08-03T06:41:09.627Z,4.90
2018-08-03T06:43:43.128Z,5.08
2018-08-03T06:46:11.936Z,5.33
2018-08-03T06:48:44.360Z,5.67
2018-08-03T06:51:13.282Z,5.35
2018-08-03T06:53:42.941Z,5.80
2018-08-03T06:56:11.475Z,5.42
2018-08-03T06:58:42.952Z,5.90
2018-08-03T07:01:12.099Z,5.33
2018-08-03T07:03:40.869Z,6.25
2018-08-03T07:06:09.758Z,5.55
2018-08-03T07:08:39.228Z,5.85
2018-08-03T07:11:07.898Z,6.08
2018-08-03T07:13:41.528Z,6.53
2018-08-03T07:16:10.324Z,5.80
2018-08-03T07:18:38.834Z,6.40
2018-08-03T07:21:07.917Z,7.00
2018-08-03T07:23:41.542Z,6.42
2018-08-03T07:26:17.160Z,6.70
2018-08-03T07:28:46.178Z,6.42
2018-08-03T07:33:53.116Z,7.05
2018-08-03T07:36:22.716Z,6.95
2018-08-03T07:38:51.683Z,6.08
2018-08-03T07:41:21.701Z,5.83
2018-08-03T07:43:51.190Z,5.65
2018-08-03T07:46:20.208Z,5.72
2018-08-03T07:48:50.304Z,7.90
2018-08-03T07:51:20.441Z,6.47
2018-08-03T07:53:49.867Z,6.03
2018-08-03T07:56:18.374Z,6.10
2018-08-03T07:58:47.160Z,6.30
2018-08-03T08:01:15.710Z,6.10
2018-08-03T08:03:44.763Z,6.40
2018-08-03T08:06:13.668Z,6.33
2018-08-03T08:08:42.392Z,6.90
2018-08-03T08:11:11.590Z,6.12
2018-08-03T08:13:40.300Z,6.03
2018-08-03T08:16:09.087Z,6.45
2018-08-03T08:18:38.242Z,5.90
2018-08-03T08:21:09.478Z,6.37
2018-08-03T08:23:38.684Z,6.28
2018-08-03T08:26:12.275Z,6.08
2018-08-03T08:28:41.324Z,5.80
2018-08-03T08:31:10.938Z,6.40
2018-08-03T08:33:44.818Z,6.60
2018-08-03T08:36:14.902Z,5.78
2018-08-03T08:38:45.320Z,5.75
2018-08-03T08:41:18.392Z,6.12
2018-08-03T08:43:48.290Z,5.87
2018-08-03T08:46:17.316Z,8.50
2018-08-03T08:48:46.477Z,6.87
2018-08-03T08:51:15.027Z,5.85
2018-08-03T08:56:36.596Z,5.80
2018-08-03T08:59:05.459Z,5.75
2018-08-03T09:01:35.303Z,6.03
2018-08-03T09:04:04.397Z,5.78
2018-08-03T09:06:33.393Z,4.97
2018-08-03T09:09:01.910Z,4.87
2018-08-03T09:11:30.705Z,5.20
2018-08-03T09:13:59.630Z,4.95
2018-08-03T09:16:28.680Z,5.30
2018-08-03T09:18:58.657Z,5.22
2018-08-03T09:21:27.643Z,5.55
2018-08-03T09:24:02.345Z,5.42
2018-08-03T09:26:33.497Z,5.37
2018-08-03T09:29:03.547Z,5.42
2018-08-03T09:31:34.737Z,5.12
2018-08-03T09:34:06.611Z,5.47
2018-08-03T09:36:35.394Z,5.37
2018-08-03T09:39:05.159Z,5.60
2018-08-03T09:41:33.571Z,5.55
2018-08-03T09:44:02.049Z,5.60
2018-08-03T09:46:30.485Z,5.22
2018-08-03T09:48:59.888Z,6.05
2018-08-03T09:51:29.027Z,5.40
2018-08-03T09:53:57.603Z,5.35
2018-08-03T09:56:26.146Z,5.50
2018-08-03T09:58:54.613Z,5.53
2018-08-03T10:01:24.004Z,5.53
2018-08-03T10:03:52.877Z,5.65
2018-08-03T10:06:21.441Z,5.35
2018-08-03T10:08:50.138Z,5.90
2018-08-03T10:11:18.974Z,5.92
2018-08-03T10:13:47.676Z,6.65
2018-08-03T10:16:16.257Z,6.05
2018-08-03T10:18:44.832Z,5.65
2018-08-03T10:21:13.589Z,6.33
2018-08-03T10:23:43.509Z,5.60
2018-08-03T10:26:12.028Z,5.65
2018-08-03T10:28:40.512Z,6.00
2018-08-03T10:31:08.971Z,5.75
2018-08-03T10:33:37.504Z,5.72
2018-08-03T10:36:06.096Z,5.95
2018-08-03T10:38:34.538Z,5.95
2018-08-03T10:41:02.938Z,6.10
2018-08-03T10:43:31.472Z,6.40
2018-08-03T10:46:00.520Z,5.90
2018-08-03T10:48:29.076Z,6.97
2018-08-03T10:50:57.566Z,7.78
2018-08-03T10:53:26.114Z,6.15
2018-08-03T10:55:55.502Z,5.90
2018-08-03T10:58:24.838Z,5.85
2018-08-03T11:00:53.538Z,5.87
2018-08-03T11:03:22.126Z,5.50
2018-08-03T11:05:50.568Z,5.47
2018-08-03T11:08:19.103Z,5.90
2018-08-03T11:10:47.700Z,5.35
2018-08-03T11:13:16.218Z,6.40
2018-08-03T11:15:44.658Z,6.25
2018-08-03T11:18:13.099Z,6.40
2018-08-03T11:20:41.670Z,6.00
2018-08-03T11:23:10.150Z,6.15
2018-08-03T11:25:38.613Z,5.67
2018-08-03T11:28:07.051Z,6.45
2018-08-03T11:30:35.588Z,5.95
2018-08-03T11:33:04.040Z,5.97
2018-08-03T11:35:32.486Z,6.12
2018-08-03T11:38:01.407Z,6.70
2018-08-03T11:40:29.888Z,7.95
2018-08-03T11:42:58.359Z,5.90
2018-08-03T11:45:26.802Z,6.25
2018-08-03T11:47:55.332Z,6.30
2018-08-03T11:50:23.756Z,6.03
2018-08-03T11:52:52.402Z,7.23
2018-08-03T11:55:20.875Z,7.07
2018-08-03T11:57:49.376Z,7.22
2018-08-03T12:00:18.002Z,6.40
2018-08-03T12:02:46.576Z,6.97
2018-08-03T12:05:15.324Z,6.62
2018-08-03T12:07:43.918Z,7.23
2018-08-03T12:10:12.436Z,8.40
2018-08-03T12:12:40.973Z,11.00
2018-08-03T12:15:09.433Z,6.60
2018-08-03T12:17:37.961Z,6.95
2018-08-03T12:20:06.568Z,6.40
2018-08-03T12:22:35.068Z,7.00
2018-08-03T12:25:03.528Z,6.83
2018-08-03T12:27:31.908Z,6.87
2018-08-03T12:30:00.398Z,6.55
2018-08-03T12:32:28.938Z,6.75
2018-08-03T12:34:57.388Z,6.62
2018-08-03T12:37:25.866Z,6.57
2018-08-03T12:39:54.284Z,6.10
2018-08-03T12:42:22.866Z,6.30
2018-08-03T12:44:51.364Z,6.20
2018-08-03T12:47:19.733Z,6.90
2018-08-03T12:49:48.207Z,6.42
2018-08-03T12:52:16.734Z,6.85
2018-08-03T12:54:45.196Z,7.00
2018-08-03T12:57:14.602Z,6.42
2018-08-03T13:02:10.743Z,6.70
2018-08-03T13:04:39.501Z,6.63
2018-08-03T13:07:08.288Z,6.95
2018-08-03T13:09:36.698Z,6.90
2018-08-03T13:12:05.344Z,6.87
2018-08-03T13:14:33.885Z,7.20
2018-08-03T13:17:02.464Z,6.70
2018-08-03T13:19:30.950Z,6.60
2018-08-03T13:21:59.408Z,6.50
2018-08-03T13:24:28.073Z,6.90
2018-08-03T13:26:56.504Z,7.28
2018-08-03T13:29:25.032Z,6.35
2018-08-03T13:31:53.560Z,6.47
2018-08-03T13:34:22.300Z,7.12
2018-08-03T13:36:50.806Z,6.53
2018-08-03T13:39:19.327Z,7.00
2018-08-03T13:41:47.834Z,6.60
2018-08-03T13:44:16.349Z,7.10
2018-08-03T13:46:45.033Z,6.47
2018-08-03T13:49:14.924Z,7.00
2018-08-03T13:51:43.722Z,6.78
2018-08-03T13:54:12.302Z,6.78
2018-08-03T13:56:40.872Z,7.10
2018-08-03T13:59:09.526Z,7.90
2018-08-03T14:01:40.442Z,11.10
2018-08-03T14:04:08.852Z,8.58
2018-08-03T14:06:37.260Z,7.35
2018-08-03T14:09:07.054Z,7.35
2018-08-03T14:11:35.578Z,6.90
2018-08-03T14:14:04.045Z,6.90
2018-08-03T14:16:32.568Z,6.67
2018-08-03T14:19:01.101Z,6.62
2018-08-03T14:21:29.574Z,6.83
2018-08-03T14:23:59.892Z,6.53
2018-08-03T14:26:28.412Z,7.12
2018-08-03T14:28:57.092Z,6.97
2018-08-03T14:31:25.610Z,6.87
2018-08-03T14:33:54.866Z,6.47
2018-08-03T14:36:25.274Z,6.60
2018-08-03T14:38:53.792Z,6.72
2018-08-03T14:41:22.467Z,6.87
2018-08-03T14:43:50.990Z,7.00
2018-08-03T14:46:19.500Z,7.05
2018-08-03T14:48:48.094Z,6.87
2018-08-03T14:51:16.810Z,6.95
2018-08-03T14:53:45.280Z,6.97
2018-08-03T14:56:13.870Z,6.95
2018-08-03T14:58:42.414Z,6.80
2018-08-03T15:01:11.220Z,6.90
2018-08-03T15:03:39.808Z,7.30
2018-08-03T15:06:09.384Z,6.97
2018-08-03T15:08:38.018Z,6.80
2018-08-03T15:11:06.921Z,6.83
2018-08-03T15:13:35.453Z,9.90
2018-08-03T15:43:19.934Z,7.58
2018-08-03T15:45:50.000Z,6.97
2018-08-03T15:48:21.447Z,6.85
2018-08-03T15:50:50.951Z,8.65
2018-08-03T15:53:20.608Z,8.08
2018-08-03T15:55:50.072Z,8.20
2018-08-03T15:58:18.664Z,7.50
2018-08-03T16:00:49.315Z,7.80
2018-08-03T16:03:18.690Z,8.00
2018-08-03T16:05:49.250Z,8.93
2018-08-03T16:08:20.902Z,7.80
2018-08-03T16:10:50.896Z,8.40
2018-08-03T16:13:20.598Z,7.78
2018-08-03T16:15:51.585Z,7.30
2018-08-03T16:18:20.350Z,6.58
2018-08-03T16:20:53.336Z,7.42
2018-08-03T16:29:23.996Z,7.45
2018-08-03T16:31:52.620Z,6.87
2018-08-03T16:34:22.786Z,7.85
2018-08-03T16:36:54.792Z,8.23
2018-08-03T16:39:23.760Z,7.15
2018-08-03T16:41:53.213Z,7.75
2018-08-03T17:01:54.948Z,7.30
2018-08-03T17:04:43.051Z,7.70
2018-08-03T17:07:11.497Z,7.42
2018-08-03T17:09:40.040Z,7.30
2018-08-03T17:12:08.809Z,7.33
2018-08-03T17:14:47.111Z,7.37
2018-08-03T17:17:16.217Z,7.80
2018-08-03T17:19:44.765Z,7.37
2018-08-03T17:22:14.896Z,7.80
2018-08-03T17:24:45.206Z,7.78
2018-08-03T17:27:13.758Z,7.50
2018-08-03T17:29:44.602Z,7.58
2018-08-03T17:32:13.282Z,7.40
2018-08-03T17:34:44.044Z,7.70
2018-08-03T17:37:12.596Z,7.97
2018-08-03T17:39:41.453Z,7.75
2018-08-03T17:42:10.464Z,8.30
2018-08-03T17:44:39.820Z,7.67
2018-08-03T17:47:08.426Z,8.63
2018-08-03T17:49:38.104Z,8.10
2018-08-03T17:52:06.585Z,8.30
2018-08-03T17:54:35.304Z,7.10
2018-08-03T17:57:03.986Z,7.25
2018-08-03T17:59:34.268Z,7.42
2018-08-03T18:02:06.584Z,7.85
2018-08-03T18:04:35.284Z,7.30
2018-08-03T18:07:05.039Z,7.25
2018-08-03T18:09:34.175Z,7.37
2018-08-03T18:12:02.708Z,7.45
2018-08-03T18:14:32.820Z,7.67
2018-08-03T18:17:01.526Z,7.75
2018-08-03T18:19:32.447Z,8.23
2018-08-03T18:22:03.041Z,7.80
2018-08-03T18:24:33.808Z,7.47
2018-08-03T18:27:03.100Z,8.30
2018-08-03T18:29:32.431Z,8.40
2018-08-03T18:32:03.734Z,7.62
2018-08-03T18:34:33.193Z,8.48
2018-08-03T18:37:03.752Z,7.22
2018-08-03T18:39:33.101Z,7.42
2018-08-03T18:42:03.167Z,8.08
2018-08-03T18:44:33.990Z,8.18
2018-08-03T18:47:03.739Z,8.10
2018-08-03T18:49:32.696Z,7.80
2018-08-03T18:52:03.476Z,7.45
2018-08-03T18:54:38.132Z,8.13
2018-08-03T18:57:08.465Z,8.13
2018-08-03T18:59:41.715Z,7.97
2018-08-03T19:02:11.596Z,7.50
2018-08-03T19:04:40.642Z,6.95
2018-08-03T19:07:10.083Z,7.50
2018-08-03T19:09:39.154Z,7.42
2018-08-03T19:12:09.973Z,11.80
2018-08-03T19:14:38.658Z,10.30
2018-08-03T19:17:08.478Z,8.80
2018-08-03T19:19:37.460Z,8.60
2018-08-03T19:22:07.860Z,8.63
2018-08-03T19:24:36.446Z,8.40
2018-08-03T19:27:05.328Z,8.48
2018-08-03T19:29:34.850Z,8.53
2018-08-03T19:32:04.867Z,7.92
2018-08-03T19:34:39.484Z,8.68
2018-08-03T19:37:08.952Z,7.70
2018-08-03T19:39:40.636Z,8.30
2018-08-03T19:42:09.502Z,8.85
2018-08-03T19:44:44.122Z,7.35
2018-08-03T19:47:12.911Z,8.18
2018-08-03T19:49:42.601Z,7.87
2018-08-03T19:52:11.321Z,8.25
2018-08-03T19:54:45.230Z,7.78
2018-08-03T19:57:14.146Z,8.45
2018-08-03T19:59:43.377Z,7.85
2018-08-03T20:02:12.282Z,7.47
2018-08-03T20:04:47.068Z,7.28
2018-08-03T20:07:16.754Z,7.67
2018-08-03T20:09:46.514Z,7.25
2018-08-03T20:12:15.383Z,7.33
2018-08-03T20:14:43.994Z,7.62
2018-08-03T20:17:13.592Z,7.75
2018-08-03T20:19:42.236Z,8.00
2018-08-03T20:22:15.212Z,7.55
2018-08-03T20:24:44.033Z,7.58
2018-08-03T20:27:14.280Z,7.72
2018-08-03T20:29:43.486Z,7.42
2018-08-03T20:32:12.094Z,7.75
2018-08-03T20:34:40.754Z,8.43
2018-08-03T20:37:09.417Z,8.05
2018-08-03T20:39:38.040Z,7.70
2018-08-03T20:42:06.660Z,7.25
2018-08-03T20:44:35.415Z,7.17
2018-08-03T20:47:04.128Z,8.10
2018-08-03T20:49:32.608Z,7.72
2018-08-03T20:52:01.209Z,7.70
2018-08-03T20:54:29.858Z,7.75
2018-08-03T20:56:58.470Z,7.58
2018-08-03T20:59:27.800Z,7.60
2018-08-03T21:01:56.338Z,6.87
2018-08-03T21:04:26.221Z,6.92
2018-08-03T21:06:54.727Z,7.42
2018-08-03T21:09:23.198Z,7.30
2018-08-03T21:11:51.886Z,7.30
2018-08-03T21:14:20.387Z,7.30
2018-08-03T21:16:49.889Z,7.45
2018-08-03T21:19:18.349Z,7.42
2018-08-03T21:21:46.778Z,6.80
2018-08-03T21:24:15.816Z,12.63
2018-08-03T21:26:44.361Z,9.33
2018-08-03T21:29:12.800Z,8.95
2018-08-03T21:31:41.288Z,7.45
2018-08-03T21:37:07.904Z,7.03
2018-08-03T21:39:36.882Z,6.47
2018-08-03T21:42:05.422Z,7.15
2018-08-03T21:44:43.450Z,6.80
2018-08-03T21:47:12.146Z,7.10
2018-08-03T21:49:40.923Z,6.75
2018-08-03T21:52:09.364Z,6.80
2018-08-03T21:54:37.901Z,7.30
2018-08-03T21:57:07.172Z,7.17
2018-08-03T21:59:36.154Z,6.87
2018-08-03T22:02:04.993Z,7.28
2018-08-03T22:04:39.539Z,6.67
2018-08-03T22:07:08.552Z,6.90
2018-08-03T22:09:38.789Z,6.92
2018-08-03T22:12:08.586Z,6.70
2018-08-03T22:14:37.272Z,6.70
2018-08-03T22:17:06.310Z,6.50
2018-08-03T22:19:35.812Z,7.03
2018-08-03T22:22:05.389Z,6.12
2018-08-03T22:24:34.169Z,6.95
2018-08-03T22:27:02.851Z,6.33
2018-08-03T22:29:32.341Z,5.92
2018-08-03T22:32:01.018Z,6.22
2018-08-03T22:34:31.528Z,5.83
2018-08-03T22:37:00.646Z,6.10
2018-08-03T22:39:29.165Z,6.08
2018-08-03T22:41:58.260Z,5.30
2018-08-03T22:44:27.341Z,6.25
2018-08-03T22:46:55.981Z,6.20
2018-08-03T22:49:24.871Z,5.70
2018-08-03T22:51:53.723Z,6.08
2018-08-03T22:54:22.227Z,6.00
2018-08-03T22:56:50.753Z,6.00
2018-08-03T22:59:19.361Z,5.85
2018-08-03T23:01:47.819Z,5.78
2018-08-03T23:04:16.239Z,5.65
2018-08-03T23:06:45.019Z,6.10
2018-08-03T23:09:14.402Z,5.85
2018-08-03T23:11:42.811Z,5.55
2018-08-03T23:14:12.247Z,5.50
2018-08-03T23:16:42.238Z,5.65
2018-08-03T23:19:11.123Z,5.65
2018-08-03T23:21:40.735Z,6.00
2018-08-03T23:24:09.381Z,7.08
2018-08-03T23:26:37.773Z,6.12
2018-08-03T23:29:06.367Z,5.90
2018-08-03T23:31:36.562Z,5.70
2018-08-03T23:34:05.045Z,6.00
2018-08-03T23:36:33.471Z,6.30
2018-08-03T23:39:02.986Z,5.80
2018-08-03T23:41:31.623Z,5.67
2018-08-03T23:44:00.126Z,6.30
2018-08-03T23:46:28.673Z,6.00
2018-08-03T23:48:57.210Z,6.25
2018-08-03T23:51:25.645Z,5.62
2018-08-03T23:53:54.260Z,5.85
2018-08-03T23:56:23.418Z,5.72
2018-08-03T23:58:54.189Z,5.30
